sensor_id;sensor_type;location;lat;lon;timestamp;temperature;humidity
1956;DHT22;978;48.314;11.562;2023-08-21T00:01:24;23.20;86.60
1956;DHT22;978;48.314;11.562;2023-08-21T00:03:51;23.20;86.60
1956;DHT22;978;48.314;11.562;2023-08-21T00:06:18;23.10;86.50
1956;DHT22;978;48.314;11.562;2023-08-21T00:08:45;23.10;86.50
1956;DHT22;978;48.314;11.562;2023-08-21T00:11:11;23.20;86.60
1956;DHT22;978;48.314;11.562;2023-08-21T00:13:38;23.10;86.50
1956;DHT22;978;48.314;11.562;2023-08-21T00:16:07;23.10;86.60
1956;DHT22;978;48.314;11.562;2023-08-21T00:18:34;23.20;86.60
1956;DHT22;978;48.314;11.562;2023-08-21T00:21:01;23.20;86.60
1956;DHT22;978;48.314;11.562;2023-08-21T00:23:28;23.10;86.50
1956;DHT22;978;48.314;11.562;2023-08-21T00:25:56;23.20;86.60
1956;DHT22;978;48.314;11.562;2023-08-21T00:28:22;23.10;86.60
1956;DHT22;978;48.314;11.562;2023-08-21T00:30:50;23.10;86.50
1956;DHT22;978;48.314;11.562;2023-08-21T00:33:18;23.20;86.60
1956;DHT22;978;48.314;11.562;2023-08-21T00:35:44;23.20;86.60
1956;DHT22;978;48.314;11.562;2023-08-21T00:38:11;23.10;86.50
1956;DHT22;978;48.314;11.562;2023-08-21T00:40:38;23.20;86.60
1956;DHT22;978;48.314;11.562;2023-08-21T00:43:05;23.10;86.50
1956;DHT22;978;48.314;11.562;2023-08-21T00:45:31;23.20;86.60
1956;DHT22;978;48.314;11.562;2023-08-21T00:47:58;23.20;86.60
1956;DHT22;978;48.314;11.562;2023-08-21T00:50:27;23.20;86.60
1956;DHT22;978;48.314;11.562;2023-08-21T00:52:53;23.20;86.60
1956;DHT22;978;48.314;11.562;2023-08-21T00:55:20;23.20;86.60
1956;DHT22;978;48.314;11.562;2023-08-21T00:57:47;23.10;86.50
1956;DHT22;978;48.314;11.562;2023-08-21T01:00:14;23.20;86.60
1956;DHT22;978;48.314;11.562;2023-08-21T01:02:41;23.20;86.60
1956;DHT22;978;48.314;11.562;2023-08-21T01:05:08;23.10;86.50
1956;DHT22;978;48.314;11.562;2023-08-21T01:07:44;23.10;86.60
1956;DHT22;978;48.314;11.562;2023-08-21T01:10:20;23.30;86.60
1956;DHT22;978;48.314;11.562;2023-08-21T01:12:52;23.20;86.60
1956;DHT22;978;48.314;11.562;2023-08-21T01:15:21;23.20;86.60
1956;DHT22;978;48.314;11.562;2023-08-21T01:17:49;23.10;86.60
1956;DHT22;978;48.314;11.562;2023-08-21T01:20:17;23.20;86.60
1956;DHT22;978;48.314;11.562;2023-08-21T01:22:45;23.20;86.60
1956;DHT22;978;48.314;11.562;2023-08-21T01:25:13;23.20;86.60
1956;DHT22;978;48.314;11.562;2023-08-21T01:27:43;23.20;86.60
1956;DHT22;978;48.314;11.562;2023-08-21T01:30:10;23.20;86.60
1956;DHT22;978;48.314;11.562;2023-08-21T01:32:43;23.20;86.60
1956;DHT22;978;48.314;11.562;2023-08-21T01:35:12;23.20;86.60
1956;DHT22;978;48.314;11.562;2023-08-21T01:37:39;23.10;86.60
1956;DHT22;978;48.314;11.562;2023-08-21T01:40:07;23.20;86.60
1956;DHT22;978;48.314;11.562;2023-08-21T01:42:35;23.20;86.60
1956;DHT22;978;48.314;11.562;2023-08-21T01:45:02;23.20;86.60
1956;DHT22;978;48.314;11.562;2023-08-21T01:47:29;23.10;86.60
1956;DHT22;978;48.314;11.562;2023-08-21T01:49:55;23.10;86.60
1956;DHT22;978;48.314;11.562;2023-08-21T01:52:22;23.20;86.60
1956;DHT22;978;48.314;11.562;2023-08-21T01:54:50;23.20;86.60
1956;DHT22;978;48.314;11.562;2023-08-21T01:57:16;23.20;86.60
1956;DHT22;978;48.314;11.562;2023-08-21T01:59:45;23.10;86.60
1956;DHT22;978;48.314;11.562;2023-08-21T02:02:11;23.20;86.60
1956;DHT22;978;48.314;11.562;2023-08-21T02:04:38;23.20;86.60
1956;DHT22;978;48.314;11.562;2023-08-21T02:07:05;23.20;86.60
1956;DHT22;978;48.314;11.562;2023-08-21T02:09:32;23.20;86.60
1956;DHT22;978;48.314;11.562;2023-08-21T02:11:59;23.20;86.60
1956;DHT22;978;48.314;11.562;2023-08-21T02:14:26;23.10;86.60
1956;DHT22;978;48.314;11.562;2023-08-21T02:16:54;23.10;86.60
1956;DHT22;978;48.314;11.562;2023-08-21T02:19:21;23.20;86.60
1956;DHT22;978;48.314;11.562;2023-08-21T02:21:47;23.20;86.60
1956;DHT22;978;48.314;11.562;2023-08-21T02:24:14;23.10;86.60
1956;DHT22;978;48.314;11.562;2023-08-21T02:26:41;23.20;86.60
1956;DHT22;978;48.314;11.562;2023-08-21T02:29:08;23.10;86.60
1956;DHT22;978;48.314;11.562;2023-08-21T02:31:35;23.20;86.60
1956;DHT22;978;48.314;11.562;2023-08-21T02:34:03;23.20;86.70
1956;DHT22;978;48.314;11.562;2023-08-21T02:36:30;23.20;86.70
1956;DHT22;978;48.314;11.562;2023-08-21T02:38:56;23.10;86.60
1956;DHT22;978;48.314;11.562;2023-08-21T02:41:23;23.10;86.60
1956;DHT22;978;48.314;11.562;2023-08-21T02:43:50;23.20;86.60
1956;DHT22;978;48.314;11.562;2023-08-21T02:46:17;23.20;86.60
1956;DHT22;978;48.314;11.562;2023-08-21T02:48:43;23.20;86.70
1956;DHT22;978;48.314;11.562;2023-08-21T02:51:11;23.20;86.70
1956;DHT22;978;48.314;11.562;2023-08-21T02:53:38;23.20;86.70
1956;DHT22;978;48.314;11.562;2023-08-21T02:56:05;23.20;86.70
1956;DHT22;978;48.314;11.562;2023-08-21T02:58:31;23.10;86.60
1956;DHT22;978;48.314;11.562;2023-08-21T03:00:58;23.10;86.60
1956;DHT22;978;48.314;11.562;2023-08-21T03:03:25;23.50;86.80
1956;DHT22;978;48.314;11.562;2023-08-21T03:05:52;23.10;86.60
1956;DHT22;978;48.314;11.562;2023-08-21T03:08:20;23.30;86.70
1956;DHT22;978;48.314;11.562;2023-08-21T03:10:46;23.10;86.60
1956;DHT22;978;48.314;11.562;2023-08-21T03:13:13;23.20;86.70
1956;DHT22;978;48.314;11.562;2023-08-21T03:15:40;23.10;86.60
1956;DHT22;978;48.314;11.562;2023-08-21T03:18:07;23.20;86.70
1956;DHT22;978;48.314;11.562;2023-08-21T03:20:33;23.20;86.70
1956;DHT22;978;48.314;11.562;2023-08-21T03:23:00;23.20;86.70
1956;DHT22;978;48.314;11.562;2023-08-21T03:25:28;23.10;86.60
1956;DHT22;978;48.314;11.562;2023-08-21T03:27:55;23.20;86.70
1956;DHT22;978;48.314;11.562;2023-08-21T03:30:22;23.10;86.60
1956;DHT22;978;48.314;11.562;2023-08-21T03:32:49;23.20;86.70
1956;DHT22;978;48.314;11.562;2023-08-21T03:35:16;23.10;86.60
1956;DHT22;978;48.314;11.562;2023-08-21T03:37:42;23.10;86.60
1956;DHT22;978;48.314;11.562;2023-08-21T03:40:10;23.20;86.70
1956;DHT22;978;48.314;11.562;2023-08-21T03:42:38;23.20;86.70
1956;DHT22;978;48.314;11.562;2023-08-21T03:45:05;23.30;86.80
1956;DHT22;978;48.314;11.562;2023-08-21T03:47:32;23.10;86.60
1956;DHT22;978;48.314;11.562;2023-08-21T03:49:59;23.10;86.60
1956;DHT22;978;48.314;11.562;2023-08-21T03:52:26;23.10;86.60
1956;DHT22;978;48.314;11.562;2023-08-21T03:54:52;23.10;86.60
1956;DHT22;978;48.314;11.562;2023-08-21T03:57:19;23.20;86.70
1956;DHT22;978;48.314;11.562;2023-08-21T03:59:47;23.20;86.70
1956;DHT22;978;48.314;11.562;2023-08-21T04:02:14;23.10;86.60
1956;DHT22;978;48.314;11.562;2023-08-21T04:04:41;23.10;86.60
1956;DHT22;978;48.314;11.562;2023-08-21T04:07:07;23.20;86.70
1956;DHT22;978;48.314;11.562;2023-08-21T04:09:35;23.20;86.70
1956;DHT22;978;48.314;11.562;2023-08-21T04:12:01;23.20;86.70
1956;DHT22;978;48.314;11.562;2023-08-21T04:14:28;23.20;86.70
1956;DHT22;978;48.314;11.562;2023-08-21T04:16:56;23.10;86.60
1956;DHT22;978;48.314;11.562;2023-08-21T04:19:23;23.20;86.70
1956;DHT22;978;48.314;11.562;2023-08-21T04:21:50;23.20;86.70
1956;DHT22;978;48.314;11.562;2023-08-21T04:24:17;23.10;86.60
1956;DHT22;978;48.314;11.562;2023-08-21T04:26:44;23.10;86.70
1956;DHT22;978;48.314;11.562;2023-08-21T04:29:11;23.10;86.60
1956;DHT22;978;48.314;11.562;2023-08-21T04:31:37;23.10;86.60
1956;DHT22;978;48.314;11.562;2023-08-21T04:34:05;23.20;86.70
1956;DHT22;978;48.314;11.562;2023-08-21T04:36:32;23.10;86.60
1956;DHT22;978;48.314;11.562;2023-08-21T04:38:59;23.20;87.30
1956;DHT22;978;48.314;11.562;2023-08-21T04:41:26;23.30;86.80
1956;DHT22;978;48.314;11.562;2023-08-21T04:43:53;23.10;86.60
1956;DHT22;978;48.314;11.562;2023-08-21T04:46:19;23.10;86.60
1956;DHT22;978;48.314;11.562;2023-08-21T04:48:46;23.20;86.70
1956;DHT22;978;48.314;11.562;2023-08-21T04:51:14;23.20;86.70
1956;DHT22;978;48.314;11.562;2023-08-21T04:53:41;23.20;86.70
1956;DHT22;978;48.314;11.562;2023-08-21T04:56:08;23.10;86.60
1956;DHT22;978;48.314;11.562;2023-08-21T04:58:35;23.20;86.70
1956;DHT22;978;48.314;11.562;2023-08-21T05:01:01;23.20;86.70
1956;DHT22;978;48.314;11.562;2023-08-21T05:03:28;23.10;86.60
1956;DHT22;978;48.314;11.562;2023-08-21T05:05:55;23.10;86.60
1956;DHT22;978;48.314;11.562;2023-08-21T05:08:24;23.10;86.60
1956;DHT22;978;48.314;11.562;2023-08-21T05:10:54;23.10;86.60
1956;DHT22;978;48.314;11.562;2023-08-21T05:13:21;23.20;86.70
1956;DHT22;978;48.314;11.562;2023-08-21T05:15:51;23.20;86.70
1956;DHT22;978;48.314;11.562;2023-08-21T05:18:18;23.20;86.70
1956;DHT22;978;48.314;11.562;2023-08-21T05:20:45;23.10;86.60
1956;DHT22;978;48.314;11.562;2023-08-21T05:23:12;23.20;86.70
1956;DHT22;978;48.314;11.562;2023-08-21T05:25:40;23.20;86.70
1956;DHT22;978;48.314;11.562;2023-08-21T05:28:07;23.20;86.70
1956;DHT22;978;48.314;11.562;2023-08-21T05:30:35;23.20;86.70
1956;DHT22;978;48.314;11.562;2023-08-21T05:33:03;23.10;86.70
1956;DHT22;978;48.314;11.562;2023-08-21T05:35:32;23.20;86.70
1956;DHT22;978;48.314;11.562;2023-08-21T05:37:59;23.20;86.70
1956;DHT22;978;48.314;11.562;2023-08-21T05:40:26;23.20;86.70
1956;DHT22;978;48.314;11.562;2023-08-21T05:42:54;23.20;86.70
1956;DHT22;978;48.314;11.562;2023-08-21T05:45:22;23.20;86.70
1956;DHT22;978;48.314;11.562;2023-08-21T05:47:48;23.20;87.30
1956;DHT22;978;48.314;11.562;2023-08-21T05:50:15;23.20;86.70
1956;DHT22;978;48.314;11.562;2023-08-21T05:52:42;23.10;86.70
1956;DHT22;978;48.314;11.562;2023-08-21T05:55:09;23.20;87.30
1956;DHT22;978;48.314;11.562;2023-08-21T05:57:36;23.20;86.70
1956;DHT22;978;48.314;11.562;2023-08-21T06:00:06;23.20;86.80
1956;DHT22;978;48.314;11.562;2023-08-21T06:02:34;23.20;86.80
1956;DHT22;978;48.314;11.562;2023-08-21T06:05:01;23.20;86.80
1956;DHT22;978;48.314;11.562;2023-08-21T06:07:28;23.10;86.70
1956;DHT22;978;48.314;11.562;2023-08-21T06:09:55;23.20;86.80
1956;DHT22;978;48.314;11.562;2023-08-21T06:12:22;23.60;87.00
1956;DHT22;978;48.314;11.562;2023-08-21T06:14:48;23.10;86.70
1956;DHT22;978;48.314;11.562;2023-08-21T06:17:16;23.10;86.70
1956;DHT22;978;48.314;11.562;2023-08-21T06:19:43;23.10;86.70
1956;DHT22;978;48.314;11.562;2023-08-21T06:22:10;23.30;86.80
1956;DHT22;978;48.314;11.562;2023-08-21T06:24:37;23.20;86.80
1956;DHT22;978;48.314;11.562;2023-08-21T06:27:04;23.20;86.80
1956;DHT22;978;48.314;11.562;2023-08-21T06:29:31;23.20;86.80
1956;DHT22;978;48.314;11.562;2023-08-21T06:31:57;23.10;86.70
1956;DHT22;978;48.314;11.562;2023-08-21T06:34:25;23.20;86.80
1956;DHT22;978;48.314;11.562;2023-08-21T06:36:52;23.20;86.80
1956;DHT22;978;48.314;11.562;2023-08-21T06:39:19;23.10;86.80
1956;DHT22;978;48.314;11.562;2023-08-21T06:41:46;23.10;86.80
1956;DHT22;978;48.314;11.562;2023-08-21T06:44:12;23.20;86.80
1956;DHT22;978;48.314;11.562;2023-08-21T06:46:39;23.20;86.80
1956;DHT22;978;48.314;11.562;2023-08-21T06:49:06;23.10;86.70
1956;DHT22;978;48.314;11.562;2023-08-21T06:51:34;23.10;86.80
1956;DHT22;978;48.314;11.562;2023-08-21T06:54:01;23.20;86.80
1956;DHT22;978;48.314;11.562;2023-08-21T06:56:28;23.20;86.90
1956;DHT22;978;48.314;11.562;2023-08-21T06:58:54;23.20;86.90
1956;DHT22;978;48.314;11.562;2023-08-21T07:01:21;23.20;86.90
1956;DHT22;978;48.314;11.562;2023-08-21T07:03:48;23.10;86.80
1956;DHT22;978;48.314;11.562;2023-08-21T07:06:15;23.10;86.80
1956;DHT22;978;48.314;11.562;2023-08-21T07:08:43;23.20;86.90
1956;DHT22;978;48.314;11.562;2023-08-21T07:11:10;23.10;86.80
1956;DHT22;978;48.314;11.562;2023-08-21T07:13:37;23.20;86.90
1956;DHT22;978;48.314;11.562;2023-08-21T07:16:04;23.10;86.80
1956;DHT22;978;48.314;11.562;2023-08-21T07:18:32;23.20;86.90
1956;DHT22;978;48.314;11.562;2023-08-21T07:20:59;23.00;86.80
1956;DHT22;978;48.314;11.562;2023-08-21T07:23:26;23.10;86.80
1956;DHT22;978;48.314;11.562;2023-08-21T07:25:54;23.10;86.80
1956;DHT22;978;48.314;11.562;2023-08-21T07:28:22;23.40;87.00
1956;DHT22;978;48.314;11.562;2023-08-21T07:30:53;23.10;86.90
1956;DHT22;978;48.314;11.562;2023-08-21T07:33:20;23.10;86.90
1956;DHT22;978;48.314;11.562;2023-08-21T07:35:47;23.70;87.20
1956;DHT22;978;48.314;11.562;2023-08-21T07:38:14;23.20;87.00
1956;DHT22;978;48.314;11.562;2023-08-21T07:40:40;23.10;86.90
1956;DHT22;978;48.314;11.562;2023-08-21T07:43:09;23.10;86.90
1956;DHT22;978;48.314;11.562;2023-08-21T07:45:37;23.10;86.90
1956;DHT22;978;48.314;11.562;2023-08-21T07:48:04;23.20;86.90
1956;DHT22;978;48.314;11.562;2023-08-21T07:50:31;23.10;86.90
1956;DHT22;978;48.314;11.562;2023-08-21T07:52:58;23.20;87.00
1956;DHT22;978;48.314;11.562;2023-08-21T07:55:25;23.20;87.00
1956;DHT22;978;48.314;11.562;2023-08-21T07:57:51;23.10;86.90
1956;DHT22;978;48.314;11.562;2023-08-21T08:00:20;23.10;86.90
1956;DHT22;978;48.314;11.562;2023-08-21T08:02:46;23.20;87.00
1956;DHT22;978;48.314;11.562;2023-08-21T08:05:13;23.20;87.00
1956;DHT22;978;48.314;11.562;2023-08-21T08:07:40;23.10;86.90
1956;DHT22;978;48.314;11.562;2023-08-21T08:10:07;23.10;86.90
1956;DHT22;978;48.314;11.562;2023-08-21T08:12:33;23.20;87.00
1956;DHT22;978;48.314;11.562;2023-08-21T08:15:00;23.20;87.00
1956;DHT22;978;48.314;11.562;2023-08-21T08:17:28;23.20;87.00
1956;DHT22;978;48.314;11.562;2023-08-21T08:19:55;23.10;87.00
1956;DHT22;978;48.314;11.562;2023-08-21T08:22:22;23.30;87.10
1956;DHT22;978;48.314;11.562;2023-08-21T08:24:49;23.10;87.00
1956;DHT22;978;48.314;11.562;2023-08-21T08:27:15;23.20;87.00
1956;DHT22;978;48.314;11.562;2023-08-21T08:29:42;23.10;87.00
1956;DHT22;978;48.314;11.562;2023-08-21T08:32:09;23.20;87.00
1956;DHT22;978;48.314;11.562;2023-08-21T08:34:37;23.10;87.00
1956;DHT22;978;48.314;11.562;2023-08-21T08:37:04;23.20;87.10
1956;DHT22;978;48.314;11.562;2023-08-21T08:39:30;23.20;87.00
1956;DHT22;978;48.314;11.562;2023-08-21T08:41:58;23.20;87.10
1956;DHT22;978;48.314;11.562;2023-08-21T08:44:29;23.20;87.10
1956;DHT22;978;48.314;11.562;2023-08-21T08:46:57;23.10;87.00
1956;DHT22;978;48.314;11.562;2023-08-21T08:49:24;23.10;87.10
1956;DHT22;978;48.314;11.562;2023-08-21T08:51:53;23.20;87.10
1956;DHT22;978;48.314;11.562;2023-08-21T08:54:21;23.20;87.10
1956;DHT22;978;48.314;11.562;2023-08-21T08:56:48;23.10;87.10
1956;DHT22;978;48.314;11.562;2023-08-21T08:59:15;23.20;87.10
1956;DHT22;978;48.314;11.562;2023-08-21T09:01:42;23.10;87.00
1956;DHT22;978;48.314;11.562;2023-08-21T09:04:09;23.10;87.00
1956;DHT22;978;48.314;11.562;2023-08-21T09:06:38;23.10;87.00
1956;DHT22;978;48.314;11.562;2023-08-21T09:09:08;23.10;87.10
1956;DHT22;978;48.314;11.562;2023-08-21T09:11:42;23.20;87.10
1956;DHT22;978;48.314;11.562;2023-08-21T09:14:10;23.20;87.20
1956;DHT22;978;48.314;11.562;2023-08-21T09:16:37;23.10;87.10
1956;DHT22;978;48.314;11.562;2023-08-21T09:19:04;23.20;87.20
1956;DHT22;978;48.314;11.562;2023-08-21T09:21:30;23.10;87.10
1956;DHT22;978;48.314;11.562;2023-08-21T09:23:58;23.20;87.10
1956;DHT22;978;48.314;11.562;2023-08-21T09:26:29;23.10;87.00
1956;DHT22;978;48.314;11.562;2023-08-21T09:28:59;23.10;87.10
1956;DHT22;978;48.314;11.562;2023-08-21T09:31:30;23.20;87.10
1956;DHT22;978;48.314;11.562;2023-08-21T09:33:58;23.20;87.10
1956;DHT22;978;48.314;11.562;2023-08-21T09:36:26;23.10;87.10
1956;DHT22;978;48.314;11.562;2023-08-21T09:38:53;23.20;87.20
1956;DHT22;978;48.314;11.562;2023-08-21T09:41:20;23.20;87.20
1956;DHT22;978;48.314;11.562;2023-08-21T09:43:49;23.10;87.10
1956;DHT22;978;48.314;11.562;2023-08-21T09:46:16;23.20;87.20
1956;DHT22;978;48.314;11.562;2023-08-21T09:48:45;23.10;87.10
1956;DHT22;978;48.314;11.562;2023-08-21T09:51:12;23.10;87.10
1956;DHT22;978;48.314;11.562;2023-08-21T09:53:40;23.10;87.10
1956;DHT22;978;48.314;11.562;2023-08-21T09:56:07;23.20;87.10
1956;DHT22;978;48.314;11.562;2023-08-21T09:58:35;23.20;87.10
1956;DHT22;978;48.314;11.562;2023-08-21T10:01:05;23.10;87.10
1956;DHT22;978;48.314;11.562;2023-08-21T10:03:38;23.20;87.10
1956;DHT22;978;48.314;11.562;2023-08-21T10:06:06;23.10;87.10
1956;DHT22;978;48.314;11.562;2023-08-21T10:08:37;23.20;87.20
1956;DHT22;978;48.314;11.562;2023-08-21T10:11:05;23.20;87.10
1956;DHT22;978;48.314;11.562;2023-08-21T10:13:33;23.10;87.10
1956;DHT22;978;48.314;11.562;2023-08-21T10:16:00;23.20;87.10
1956;DHT22;978;48.314;11.562;2023-08-21T10:18:32;23.20;87.10
1956;DHT22;978;48.314;11.562;2023-08-21T10:21:11;23.20;87.10
1956;DHT22;978;48.314;11.562;2023-08-21T10:23:38;23.20;87.10
1956;DHT22;978;48.314;11.562;2023-08-21T10:26:06;23.20;87.10
1956;DHT22;978;48.314;11.562;2023-08-21T10:28:42;23.10;87.10
1956;DHT22;978;48.314;11.562;2023-08-21T10:31:29;23.20;87.10
1956;DHT22;978;48.314;11.562;2023-08-21T10:33:59;23.10;87.10
1956;DHT22;978;48.314;11.562;2023-08-21T10:39:39;23.20;87.10
1956;DHT22;978;48.314;11.562;2023-08-21T10:42:08;23.10;87.10
1956;DHT22;978;48.314;11.562;2023-08-21T10:44:52;23.10;87.10
1956;DHT22;978;48.314;11.562;2023-08-21T10:47:22;23.10;87.10
1956;DHT22;978;48.314;11.562;2023-08-21T10:49:52;23.20;87.10
1956;DHT22;978;48.314;11.562;2023-08-21T10:52:24;23.20;87.70
1956;DHT22;978;48.314;11.562;2023-08-21T10:54:53;23.20;87.10
1956;DHT22;978;48.314;11.562;2023-08-21T10:57:21;23.20;87.10
1956;DHT22;978;48.314;11.562;2023-08-21T10:59:55;23.10;87.00
1956;DHT22;978;48.314;11.562;2023-08-21T11:02:23;23.20;87.10
1956;DHT22;978;48.314;11.562;2023-08-21T11:04:52;23.10;87.00
1956;DHT22;978;48.314;11.562;2023-08-21T11:07:19;23.10;87.00
1956;DHT22;978;48.314;11.562;2023-08-21T11:09:46;23.20;87.10
1956;DHT22;978;48.314;11.562;2023-08-21T11:12:15;23.20;87.10
1956;DHT22;978;48.314;11.562;2023-08-21T11:14:42;23.10;87.00
1956;DHT22;978;48.314;11.562;2023-08-21T11:17:10;23.10;87.00
1956;DHT22;978;48.314;11.562;2023-08-21T11:19:37;23.20;87.10
1956;DHT22;978;48.314;11.562;2023-08-21T11:22:06;23.20;87.10
1956;DHT22;978;48.314;11.562;2023-08-21T11:24:41;23.20;87.10
1956;DHT22;978;48.314;11.562;2023-08-21T11:27:08;23.10;87.00
1956;DHT22;978;48.314;11.562;2023-08-21T11:29:39;23.10;87.00
1956;DHT22;978;48.314;11.562;2023-08-21T11:32:10;23.20;87.10
1956;DHT22;978;48.314;11.562;2023-08-21T11:34:37;23.20;87.10
1956;DHT22;978;48.314;11.562;2023-08-21T11:37:06;23.10;87.00
1956;DHT22;978;48.314;11.562;2023-08-21T11:39:43;23.10;87.00
1956;DHT22;978;48.314;11.562;2023-08-21T11:42:11;23.10;87.00
1956;DHT22;978;48.314;11.562;2023-08-21T11:44:43;23.20;87.10
1956;DHT22;978;48.314;11.562;2023-08-21T11:47:10;23.20;87.10
1956;DHT22;978;48.314;11.562;2023-08-21T11:49:37;23.10;87.00
1956;DHT22;978;48.314;11.562;2023-08-21T11:52:05;23.10;87.00
1956;DHT22;978;48.314;11.562;2023-08-21T11:54:33;23.10;87.00
1956;DHT22;978;48.314;11.562;2023-08-21T11:57:04;23.20;87.00
1956;DHT22;978;48.314;11.562;2023-08-21T11:59:31;23.10;87.00
1956;DHT22;978;48.314;11.562;2023-08-21T12:01:58;23.20;87.00
1956;DHT22;978;48.314;11.562;2023-08-21T12:04:25;23.10;87.00
1956;DHT22;978;48.314;11.562;2023-08-21T12:06:53;23.10;86.90
1956;DHT22;978;48.314;11.562;2023-08-21T12:09:21;23.10;87.00
1956;DHT22;978;48.314;11.562;2023-08-21T12:11:47;23.10;87.00
1956;DHT22;978;48.314;11.562;2023-08-21T12:14:14;23.20;87.00
1956;DHT22;978;48.314;11.562;2023-08-21T12:16:42;23.10;87.00
1956;DHT22;978;48.314;11.562;2023-08-21T12:19:09;23.20;87.60
1956;DHT22;978;48.314;11.562;2023-08-21T12:21:37;23.10;87.00
1956;DHT22;978;48.314;11.562;2023-08-21T12:24:04;23.10;87.00
1956;DHT22;978;48.314;11.562;2023-08-21T12:26:33;23.10;87.00
1956;DHT22;978;48.314;11.562;2023-08-21T12:29:00;23.20;87.10
1956;DHT22;978;48.314;11.562;2023-08-21T12:31:27;23.20;87.00
1956;DHT22;978;48.314;11.562;2023-08-21T12:33:54;23.20;87.10
1956;DHT22;978;48.314;11.562;2023-08-21T12:36:21;23.20;87.00
1956;DHT22;978;48.314;11.562;2023-08-21T12:38:48;23.20;87.00
1956;DHT22;978;48.314;11.562;2023-08-21T12:41:14;23.20;87.00
1956;DHT22;978;48.314;11.562;2023-08-21T12:43:42;23.20;87.00
1956;DHT22;978;48.314;11.562;2023-08-21T12:46:09;23.20;87.10
1956;DHT22;978;48.314;11.562;2023-08-21T12:48:36;23.10;87.00
1956;DHT22;978;48.314;11.562;2023-08-21T12:51:03;23.20;87.10
1956;DHT22;978;48.314;11.562;2023-08-21T12:53:30;23.10;87.00
1956;DHT22;978;48.314;11.562;2023-08-21T12:55:57;23.10;87.00
1956;DHT22;978;48.314;11.562;2023-08-21T12:58:24;23.10;87.00
1956;DHT22;978;48.314;11.562;2023-08-21T13:00:52;23.10;87.00
1956;DHT22;978;48.314;11.562;2023-08-21T13:03:19;23.10;87.00
1956;DHT22;978;48.314;11.562;2023-08-21T13:05:46;23.20;87.10
1956;DHT22;978;48.314;11.562;2023-08-21T13:08:13;23.20;87.10
1956;DHT22;978;48.314;11.562;2023-08-21T13:10:40;23.20;87.00
1956;DHT22;978;48.314;11.562;2023-08-21T13:13:06;23.10;87.00
1956;DHT22;978;48.314;11.562;2023-08-21T13:15:33;23.20;87.10
1956;DHT22;978;48.314;11.562;2023-08-21T13:18:01;23.10;87.00
1956;DHT22;978;48.314;11.562;2023-08-21T13:20:28;23.10;87.00
1956;DHT22;978;48.314;11.562;2023-08-21T13:22:55;23.10;87.00
1956;DHT22;978;48.314;11.562;2023-08-21T13:25:22;23.20;87.10
1956;DHT22;978;48.314;11.562;2023-08-21T13:27:50;23.20;87.10
1956;DHT22;978;48.314;11.562;2023-08-21T13:30:17;23.10;87.00
1956;DHT22;978;48.314;11.562;2023-08-21T13:32:44;23.10;87.00
1956;DHT22;978;48.314;11.562;2023-08-21T13:35:12;23.20;87.00
1956;DHT22;978;48.314;11.562;2023-08-21T13:37:39;23.20;87.10
1956;DHT22;978;48.314;11.562;2023-08-21T13:40:07;23.20;87.10
1956;DHT22;978;48.314;11.562;2023-08-21T13:42:40;21.60;86.10
1956;DHT22;978;48.314;11.562;2023-08-21T13:45:08;23.10;87.00
1956;DHT22;978;48.314;11.562;2023-08-21T13:47:36;23.20;87.00
1956;DHT22;978;48.314;11.562;2023-08-21T13:50:04;23.40;87.20
1956;DHT22;978;48.314;11.562;2023-08-21T13:52:33;23.10;87.00
1956;DHT22;978;48.314;11.562;2023-08-21T13:55:00;23.20;87.00
1956;DHT22;978;48.314;11.562;2023-08-21T13:57:27;23.20;87.00
1956;DHT22;978;48.314;11.562;2023-08-21T13:59:54;23.10;86.90
1956;DHT22;978;48.314;11.562;2023-08-21T14:02:21;23.10;87.00
1956;DHT22;978;48.314;11.562;2023-08-21T14:04:48;23.20;87.00
1956;DHT22;978;48.314;11.562;2023-08-21T14:07:15;23.20;87.00
1956;DHT22;978;48.314;11.562;2023-08-21T14:09:43;23.10;87.00
1956;DHT22;978;48.314;11.562;2023-08-21T14:12:10;23.20;87.00
1956;DHT22;978;48.314;11.562;2023-08-21T14:14:37;23.20;87.00
1956;DHT22;978;48.314;11.562;2023-08-21T14:17:04;23.10;86.90
1956;DHT22;978;48.314;11.562;2023-08-21T14:19:30;23.10;87.00
1956;DHT22;978;48.314;11.562;2023-08-21T14:21:58;23.10;87.00
1956;DHT22;978;48.314;11.562;2023-08-21T14:24:24;23.10;87.00
1956;DHT22;978;48.314;11.562;2023-08-21T14:26:53;23.20;87.00
1956;DHT22;978;48.314;11.562;2023-08-21T14:29:20;23.10;86.90
1956;DHT22;978;48.314;11.562;2023-08-21T14:31:47;23.20;87.00
1956;DHT22;978;48.314;11.562;2023-08-21T14:34:14;23.20;87.00
1956;DHT22;978;48.314;11.562;2023-08-21T14:36:41;23.10;86.90
1956;DHT22;978;48.314;11.562;2023-08-21T14:39:08;23.10;87.00
1956;DHT22;978;48.314;11.562;2023-08-21T14:41:36;23.40;87.10
1956;DHT22;978;48.314;11.562;2023-08-21T14:44:04;23.10;87.00
1956;DHT22;978;48.314;11.562;2023-08-21T14:46:31;24.20;87.60
1956;DHT22;978;48.314;11.562;2023-08-21T14:48:58;23.20;87.00
1956;DHT22;978;48.314;11.562;2023-08-21T14:51:25;23.20;87.00
1956;DHT22;978;48.314;11.562;2023-08-21T14:53:52;23.20;87.00
1956;DHT22;978;48.314;11.562;2023-08-21T14:56:19;23.30;87.10
1956;DHT22;978;48.314;11.562;2023-08-21T14:58:46;23.20;87.00
1956;DHT22;978;48.314;11.562;2023-08-21T15:01:14;23.20;87.00
1956;DHT22;978;48.314;11.562;2023-08-21T15:03:42;23.20;87.00
1956;DHT22;978;48.314;11.562;2023-08-21T15:06:09;23.20;87.00
1956;DHT22;978;48.314;11.562;2023-08-21T15:08:37;23.20;87.00
1956;DHT22;978;48.314;11.562;2023-08-21T15:11:04;23.10;87.00
1956;DHT22;978;48.314;11.562;2023-08-21T15:13:31;23.10;87.00
1956;DHT22;978;48.314;11.562;2023-08-21T15:15:58;23.20;87.00
1956;DHT22;978;48.314;11.562;2023-08-21T15:18:26;23.20;87.00
1956;DHT22;978;48.314;11.562;2023-08-21T15:20:53;23.20;87.00
1956;DHT22;978;48.314;11.562;2023-08-21T15:23:19;23.10;87.00
1956;DHT22;978;48.314;11.562;2023-08-21T15:25:46;23.20;87.00
1956;DHT22;978;48.314;11.562;2023-08-21T15:28:13;23.20;87.00
1956;DHT22;978;48.314;11.562;2023-08-21T15:30:39;23.20;87.00
1956;DHT22;978;48.314;11.562;2023-08-21T15:33:06;23.20;87.00
1956;DHT22;978;48.314;11.562;2023-08-21T15:35:34;23.20;87.00
1956;DHT22;978;48.314;11.562;2023-08-21T15:38:01;23.20;87.00
1956;DHT22;978;48.314;11.562;2023-08-21T15:40:28;23.10;87.00
1956;DHT22;978;48.314;11.562;2023-08-21T15:42:55;23.20;87.00
1956;DHT22;978;48.314;11.562;2023-08-21T15:45:22;23.20;87.00
1956;DHT22;978;48.314;11.562;2023-08-21T15:47:49;23.10;86.90
1956;DHT22;978;48.314;11.562;2023-08-21T15:50:16;23.10;87.00
1956;DHT22;978;48.314;11.562;2023-08-21T15:52:46;23.10;87.00
1956;DHT22;978;48.314;11.562;2023-08-21T15:55:13;24.10;87.50
1956;DHT22;978;48.314;11.562;2023-08-21T15:57:40;23.20;87.00
1956;DHT22;978;48.314;11.562;2023-08-21T16:00:08;23.10;87.00
1956;DHT22;978;48.314;11.562;2023-08-21T16:02:35;23.20;87.00
1956;DHT22;978;48.314;11.562;2023-08-21T16:05:01;23.20;87.00
1956;DHT22;978;48.314;11.562;2023-08-21T16:07:29;23.20;87.00